KCXP

Carson Airport

Carson City, Nevada, USA
KCXP 241833Z 2419/2518 04009G16KT P6SM SKC FM250500 VRB05KT P6SM SKC
Issued Valid From Valid To
Sep-24 @ 18:33 UTC
(an hour ago)
Sep-24 @ 19:00 UTC
(40 minutes ago)
Sep-25 @ 18:00 UTC
(in 22 hours)
Sep-24 @ 19:00 to Sep-25 @ 05:00
KCXP 241833Z 2419/2518 04009G16KT P6SM SKC
Wind Visibility Clouds
40° at 9 knots
 Gusting to 16 knots
Greater than 6 miles
  • Clear skies
From Sep-25 @ 05:00 to Sep-25 @ 18:00
FM250500 VRB05KT P6SM SKC
Wind Visibility Clouds
Variable at 5 knots Greater than 6 miles
  • Clear skies
KCXP 241833Z 2419/2518 04009G16KT P6SM SKC FM250500 VRB05KT P6SM SKC
Issued Sep-24 @ 18:33 UTC
(an hour ago)
Valid From Sep-24 @ 19:00 UTC
(40 minutes ago)
Valid To Sep-25 @ 18:00 UTC
(in 22 hours)
Sep-24 @ 19:00 - Sep-25 @ 05:00
Wind Visibility
40° at 9 knots
 Gusting to 16 knots
Greater than 6 miles
Clouds
  • Clear skies
From Sep-25 @ 05:00 - Sep-25 @ 18:00
Wind Visibility
Variable at 5 knots Greater than 6 miles
Clouds
  • Clear skies